Broager, Denmark
Current Conditions -  °F | °C
As of 2:20 AM on Monday 22 Dec 2014 (Local Time) from ETGG Reporting Station
Moderate Rain Moderate Rain  
Wind Chill: 39°   Ceiling: 500
Heat Index: 48°   Visibility: 2.3mi
Dew Point: 46°   Wind: 38mph
Humidity: 93%   Direction: 250°WSW
Pressure: 29.65"   Gusts: 49mph
Location:  54.89°N, 9.68°E
Report Text: ETGG 220120Z 25033G43KT 3800 RA BR BKN005 09/08 Q1004 YLO
Loading
Personal Weather Stations






























Interactive Weather Map New forecast layout! Learn more

10-Day Weather Forecast

Advertisements
Track Severe Weather on mobile